Time;durP1;ratioP1;P1;durP2;ratioP2;P2;SDS_P1;SDS_P2;PMS_P1;PMS_P2;Temp;Humidity;BMP_temperature;BMP_pressure;BME280_temperature;BME280_humidity;BME280_pressure;Samples;Min_cycle;Max_cycle;Signal;HPM_P1;HPM_P2
2023/12/24 00:02:24;;;;;;;1.20;1.10;;;;;;;0.75;100.00;99530.78;5608722;31;34727;-72
2023/12/24 00:05:27;;;;;;;1.75;1.30;;;;;;;0.78;100.00;99535.72;5609049;31;34608;-71
2023/12/24 00:08:30;;;;;;;2.15;1.60;;;;;;;0.84;100.00;99524.78;5608443;31;33717;-71
2023/12/24 00:11:33;;;;;;;1.80;1.33;;;;;;;0.81;100.00;99538.09;5608646;31;34717;-71
2023/12/24 00:14:38;;;;;;;2.47;1.40;;;;;;;0.80;100.00;99537.28;5608703;31;34222;-71
2023/12/24 00:17:41;;;;;;;1.75;1.52;;;;;;;0.80;100.00;99539.06;5608853;31;34056;-71
2023/12/24 00:20:45;;;;;;;1.48;1.00;;;;;;;0.80;100.00;99529.44;5608495;31;34312;-70
2023/12/24 00:23:49;;;;;;;1.15;0.90;;;;;;;0.88;100.00;99527.00;5608456;31;33961;-70
2023/12/24 00:26:52;;;;;;;1.08;0.98;;;;;;;0.99;100.00;99544.41;5607637;31;33993;-69
2023/12/24 00:29:56;;;;;;;1.20;1.10;;;;;;;0.97;100.00;99540.28;5608649;31;34039;-70
2023/12/24 00:33:00;;;;;;;1.10;1.00;;;;;;;1.02;100.00;99538.09;5608185;31;34076;-70
2023/12/24 00:36:03;;;;;;;1.80;1.65;;;;;;;1.03;100.00;99539.75;5608096;31;34245;-71
2023/12/24 00:39:06;;;;;;;2.28;2.05;;;;;;;1.09;100.00;99555.75;5608523;31;34874;-71
2023/12/24 00:42:10;;;;;;;3.37;2.35;;;;;;;1.06;100.00;99560.41;5607377;31;33969;-70
2023/12/24 00:45:15;;;;;;;3.10;2.58;;;;;;;1.05;100.00;99564.81;5608341;31;34008;-71
2023/12/24 00:48:26;;;;;;;3.47;2.80;;;;;;;1.02;100.00;99566.81;5608793;31;33031;-71
2023/12/24 00:51:29;;;;;;;3.15;2.80;;;;;;;1.00;100.00;99572.19;5608303;31;33689;-71
2023/12/24 00:54:32;;;;;;;3.20;2.90;;;;;;;0.98;100.00;99574.09;5607898;31;34742;-71
2023/12/24 00:57:37;;;;;;;3.78;3.10;;;;;;;1.01;100.00;99580.84;5607119;31;34101;-71
2023/12/24 01:00:40;;;;;;;4.37;3.45;;;;;;;0.94;100.00;99577.91;5608060;31;34037;-72
2023/12/24 01:03:43;;;;;;;3.65;3.22;;;;;;;1.01;100.00;99597.34;5607802;31;34725;-71
2023/12/24 01:06:46;;;;;;;3.33;3.03;;;;;;;0.99;100.00;99601.88;5607829;31;34244;-71
2023/12/24 01:09:51;;;;;;;2.90;2.70;;;;;;;0.84;100.00;99598.72;5607434;31;34965;-70
2023/12/24 01:12:54;;;;;;;2.95;2.67;;;;;;;0.88;100.00;99607.13;5607439;31;34083;-71
2023/12/24 01:15:57;;;;;;;3.30;2.85;;;;;;;0.85;100.00;99617.84;5607578;31;33477;-69
2023/12/24 01:19:00;;;;;;;3.60;3.30;;;;;;;0.84;100.00;99619.59;5607483;31;35527;-72
2023/12/24 01:22:03;;;;;;;3.60;3.30;;;;;;;0.85;100.00;99623.06;5607427;31;34146;-70
2023/12/24 01:25:07;;;;;;;3.60;3.30;;;;;;;0.81;100.00;99622.47;5607786;31;34112;-70
2023/12/24 01:28:10;;;;;;;3.87;3.47;;;;;;;0.81;100.00;99621.66;5607451;31;34043;-71
2023/12/24 01:31:13;;;;;;;4.07;3.67;;;;;;;0.81;100.00;99624.25;5606658;31;34118;-70
2023/12/24 01:34:17;;;;;;;4.10;3.70;;;;;;;0.81;100.00;99619.03;5607376;31;34686;-70
2023/12/24 01:37:21;;;;;;;4.28;3.92;;;;;;;0.84;100.00;99626.63;5607851;31;34324;-70
2023/12/24 01:40:23;;;;;;;4.60;4.20;;;;;;;0.85;100.00;99615.22;5609860;31;34273;-70
2023/12/24 01:43:26;;;;;;;5.05;4.55;;;;;;;0.86;100.00;99627.34;5610227;31;35044;-70
2023/12/24 01:46:30;;;;;;;4.50;4.10;;;;;;;0.79;100.00;99619.16;5610220;31;34910;-70
2023/12/24 01:49:34;;;;;;;4.50;4.10;;;;;;;0.82;100.00;99618.88;5608991;31;34110;-70
2023/12/24 01:52:38;;;;;;;4.53;4.12;;;;;;;0.87;100.00;99614.13;5609541;31;34073;-71
2023/12/24 01:55:42;;;;;;;4.72;3.65;;;;;;;0.90;100.00;99612.22;5609732;31;34054;-71
2023/12/24 01:58:45;;;;;;;4.55;4.15;;;;;;;0.99;100.00;99619.31;5609705;31;34060;-70
2023/12/24 02:01:48;;;;;;;5.53;5.03;;;;;;;0.96;100.00;99609.97;5609671;31;34639;-70
2023/12/24 02:04:51;;;;;;;6.37;5.60;;;;;;;0.98;100.00;99618.47;5609949;31;34140;-70
2023/12/24 02:07:55;;;;;;;7.50;6.80;;;;;;;0.98;100.00;99621.09;5609923;31;34092;-71
2023/12/24 02:10:59;;;;;;;7.93;7.15;;;;;;;0.96;100.00;99609.12;5609365;31;35300;-71
2023/12/24 02:14:02;;;;;;;8.30;7.50;;;;;;;0.92;100.00;99618.97;5609392;31;34112;-71
2023/12/24 02:17:06;;;;;;;8.00;7.28;;;;;;;0.95;100.00;99613.53;5609503;31;34003;-71
2023/12/24 02:20:10;;;;;;;7.90;7.10;;;;;;;0.98;100.00;99612.44;5609764;31;34998;-71
2023/12/24 02:23:14;;;;;;;7.37;6.68;;;;;;;0.98;100.00;99601.97;5609384;31;34041;-72
2023/12/24 02:26:20;;;;;;;7.97;7.20;;;;;;;0.98;100.00;99615.88;5608573;31;34771;-72
2023/12/24 02:29:31;;;;;;;7.05;5.97;;;;;;;1.05;100.00;99622.25;5609237;31;34129;-72
2023/12/24 02:32:37;;;;;;;7.18;6.40;;;;;;;1.03;100.00;99623.31;5609394;31;33976;-72
2023/12/24 02:35:42;;;;;;;7.97;6.07;;;;;;;1.01;100.00;99615.62;5609330;31;34103;-72
2023/12/24 02:38:45;;;;;;;6.53;5.93;;;;;;;1.02;100.00;99614.66;5595589;31;34759;-72
2023/12/24 02:41:48;;;;;;;5.78;5.22;;;;;;;1.05;100.00;99618.81;5608517;31;34362;-71
2023/12/24 02:44:51;;;;;;;6.15;5.55;;;;;;;1.11;100.00;99613.94;5609372;31;34097;-72
2023/12/24 02:47:55;;;;;;;6.03;5.43;;;;;;;1.06;100.00;99626.53;5608582;31;34854;-71
2023/12/24 02:50:58;;;;;;;6.12;5.53;;;;;;;1.11;100.00;99631.38;5608951;31;34595;-71
2023/12/24 02:54:02;;;;;;;6.97;6.28;;;;;;;1.11;100.00;99620.94;5609008;31;34128;-72
2023/12/24 02:57:05;;;;;;;7.85;7.10;;;;;;;1.12;100.00;99625.19;5609072;31;34140;-72
2023/12/24 03:00:09;;;;;;;8.20;7.47;;;;;;;1.10;100.00;99614.03;5608374;31;34014;-72
2023/12/24 03:03:13;;;;;;;8.65;7.85;;;;;;;1.09;100.00;99620.22;5609023;31;34740;-73
2023/12/24 03:06:17;;;;;;;8.23;7.43;;;;;;;1.08;100.00;99621.16;5609078;31;34225;-73
2023/12/24 03:09:20;;;;;;;9.43;8.52;;;;;;;1.10;100.00;99634.94;5609101;31;35072;-73
2023/12/24 03:12:23;;;;;;;10.15;9.15;;;;;;;1.07;100.00;99625.56;5608778;31;34391;-73
2023/12/24 03:15:27;;;;;;;11.00;9.90;;;;;;;1.05;100.00;99630.09;5608842;31;34152;-73
2023/12/24 03:18:30;;;;;;;10.20;9.20;;;;;;;1.05;100.00;99630.09;5609365;31;34494;-73
2023/12/24 03:21:33;;;;;;;9.55;8.57;;;;;;;1.07;100.00;99628.16;5608185;31;34035;-73
2023/12/24 03:24:37;;;;;;;8.48;7.68;;;;;;;1.10;100.00;99630.56;5609046;31;34323;-73
2023/12/24 03:27:40;;;;;;;7.93;7.12;;;;;;;1.09;100.00;99626.28;5608818;31;34720;-72
2023/12/24 03:30:43;;;;;;;7.30;6.68;;;;;;;1.09;100.00;99618.44;5608750;31;34914;-72
2023/12/24 03:33:46;;;;;;;8.82;7.40;;;;;;;1.15;100.00;99619.72;5608740;31;34820;-73
2023/12/24 03:36:49;;;;;;;8.93;8.13;;;;;;;1.20;100.00;99614.94;5608775;31;34230;-72
2023/12/24 03:39:52;;;;;;;8.35;7.35;;;;;;;1.23;100.00;99620.72;5608822;31;34187;-73
2023/12/24 03:42:55;;;;;;;10.00;7.62;;;;;;;1.27;100.00;99618.69;5608660;31;34242;-73
2023/12/24 03:45:58;;;;;;;7.22;6.22;;;;;;;1.26;100.00;99619.63;5609092;31;34259;-73
2023/12/24 03:49:01;;;;;;;6.03;5.50;;;;;;;1.36;100.00;99620.53;5607868;31;35559;-73
2023/12/24 03:52:05;;;;;;;7.53;6.37;;;;;;;1.34;100.00;99630.31;5608484;31;34051;-73
2023/12/24 03:55:08;;;;;;;8.80;7.90;;;;;;;1.37;100.00;99619.59;5608687;31;34114;-73
2023/12/24 03:58:10;;;;;;;9.38;8.48;;;;;;;1.35;100.00;99626.75;5608543;31;34072;-73
2023/12/24 04:01:14;;;;;;;9.27;8.38;;;;;;;1.26;100.00;99630.09;5608119;31;34740;-73
2023/12/24 04:04:17;;;;;;;11.65;9.73;;;;;;;1.27;100.00;99623.91;5608543;31;34092;-74
2023/12/24 04:07:20;;;;;;;12.40;9.60;;;;;;;1.34;100.00;99624.25;5607657;31;34135;-73
2023/12/24 04:10:23;;;;;;;10.25;9.25;;;;;;;1.35;100.00;99624.12;5608434;31;34118;-74
2023/12/24 04:13:25;;;;;;;8.50;6.95;;;;;;;1.33;100.00;99615.56;5608178;31;34989;-73
2023/12/24 04:16:28;;;;;;;7.93;7.12;;;;;;;1.41;100.00;99607.91;5608940;31;34108;-73
2023/12/24 04:19:32;;;;;;;8.20;7.40;;;;;;;1.42;100.00;99612.19;5608507;31;33847;-73
2023/12/24 04:22:34;;;;;;;6.25;5.65;;;;;;;1.48;100.00;99611.69;5608529;31;33050;-73
2023/12/24 04:25:37;;;;;;;4.78;4.37;;;;;;;1.51;100.00;99606.19;5608549;31;34233;-73
2023/12/24 04:28:41;;;;;;;6.22;4.93;;;;;;;1.59;100.00;99610.78;5608338;31;34272;-73
2023/12/24 04:31:45;;;;;;;5.20;4.70;;;;;;;1.63;100.00;99604.34;5608156;31;34329;-73
2023/12/24 04:34:48;;;;;;;5.60;4.90;;;;;;;1.60;100.00;99600.19;5608426;31;34802;-73
2023/12/24 04:37:51;;;;;;;6.00;5.43;;;;;;;1.63;100.00;99601.72;5608109;31;34133;-72
2023/12/24 04:40:54;;;;;;;5.60;5.10;;;;;;;1.65;100.00;99589.31;5608043;31;34080;-74
2023/12/24 04:43:57;;;;;;;6.43;5.25;;;;;;;1.62;100.00;99594.81;5608067;31;34462;-74
2023/12/24 04:47:00;;;;;;;5.78;5.18;;;;;;;1.64;100.00;99590.31;5608466;31;34257;-73
2023/12/24 04:50:04;;;;;;;6.18;5.10;;;;;;;1.63;100.00;99591.25;5608053;31;34021;-72
2023/12/24 04:53:07;;;;;;;18.85;6.00;;;;;;;1.70;100.00;99587.16;5608424;31;34227;-74
2023/12/24 04:56:23;;;;;;;6.07;5.47;;;;;;;1.68;100.00;99594.31;5607933;31;34070;-74
2023/12/24 04:59:27;;;;;;;5.68;5.18;;;;;;;1.78;100.00;99594.34;5607991;31;34148;-73
2023/12/24 05:02:30;;;;;;;6.47;5.85;;;;;;;1.82;100.00;99587.91;5608068;31;34174;-74
2023/12/24 05:05:32;;;;;;;6.18;5.57;;;;;;;1.80;100.00;99577.56;5607991;31;34216;-73
2023/12/24 05:08:36;;;;;;;6.57;5.53;;;;;;;1.74;100.00;99576.28;5607790;31;35140;-74
2023/12/24 05:11:40;;;;;;;6.22;5.62;;;;;;;1.84;100.00;99586.00;5607028;31;34980;-72
2023/12/24 05:14:43;;;;;;;6.78;6.07;;;;;;;1.80;100.00;99579.34;5609843;31;34507;-72
2023/12/24 05:17:46;;;;;;;6.53;5.82;;;;;;;1.81;100.00;99591.47;5610012;31;34007;-72
2023/12/24 05:20:49;;;;;;;8.23;7.43;;;;;;;1.80;100.00;99590.63;5610086;31;33998;-72
2023/12/24 05:23:53;;;;;;;8.90;8.00;;;;;;;1.77;100.00;99590.91;5610194;31;34072;-72
2023/12/24 05:26:55;;;;;;;12.85;9.52;;;;;;;1.78;100.00;99602.22;5609981;31;35249;-72
2023/12/24 05:29:58;;;;;;;17.90;15.98;;;;;;;1.69;100.00;99607.25;5609937;31;34275;-72
2023/12/24 05:33:01;;;;;;;19.55;17.05;;;;;;;1.58;100.00;99594.28;5610182;31;34831;-72
2023/12/24 05:36:04;;;;;;;21.50;18.08;;;;;;;1.54;100.00;99584.19;5609855;31;34104;-73
2023/12/24 05:39:11;;;;;;;24.05;18.05;;;;;;;1.63;100.00;99604.34;5609843;31;34694;-72
2023/12/24 05:42:14;;;;;;;24.98;19.05;;;;;;;1.56;100.00;99598.78;5609862;31;34312;-72
2023/12/24 05:45:17;;;;;;;24.95;18.90;;;;;;;1.53;100.00;99598.22;5608898;31;34466;-73
2023/12/24 05:48:20;;;;;;;27.62;20.40;;;;;;;1.51;100.00;99608.81;5610098;31;34266;-73
2023/12/24 05:51:22;;;;;;;25.48;19.85;;;;;;;1.51;100.00;99607.97;5609981;31;34092;-72
2023/12/24 05:54:25;;;;;;;27.17;21.08;;;;;;;1.48;100.00;99609.06;5609700;31;34321;-72
2023/12/24 05:57:28;;;;;;;25.20;19.98;;;;;;;1.44;100.00;99610.28;5609566;31;34028;-72
2023/12/24 06:00:32;;;;;;;23.77;19.15;;;;;;;1.51;100.00;99608.81;5609598;31;34125;-72
2023/12/24 06:03:39;;;;;;;23.83;18.75;;;;;;;1.55;100.00;99606.78;5609863;31;34054;-73
2023/12/24 06:06:42;;;;;;;22.67;18.35;;;;;;;1.60;100.00;99612.41;5609480;31;34139;-72
2023/12/24 06:09:45;;;;;;;21.92;18.23;;;;;;;1.65;100.00;99618.09;5609233;31;34894;-73
2023/12/24 06:12:51;;;;;;;23.23;18.75;;;;;;;1.63;100.00;99622.63;5609328;31;34701;-73
2023/12/24 06:15:55;;;;;;;25.08;19.12;;;;;;;1.63;100.00;99613.00;5609529;31;34237;-72
2023/12/24 06:18:58;;;;;;;28.17;19.92;;;;;;;1.59;100.00;99595.09;5609558;31;34057;-72
2023/12/24 06:22:01;;;;;;;24.98;19.58;;;;;;;1.64;100.00;99609.44;5609552;31;34701;-72
2023/12/24 06:25:05;;;;;;;23.52;19.10;;;;;;;1.60;100.00;99609.81;5609253;31;34001;-72
2023/12/24 06:28:08;;;;;;;8.52;7.43;;;;;;;1.60;100.00;99605.41;5609335;31;34218;-73
2023/12/24 06:31:11;;;;;;;4.50;3.75;;;;;;;2.10;100.00;99606.31;5609325;31;34127;-73
2023/12/24 06:34:14;;;;;;;1.92;1.73;;;;;;;3.00;100.00;99598.31;5609241;31;34113;-73
2023/12/24 06:37:16;;;;;;;3.08;1.40;;;;;;;3.69;100.00;99603.28;5609357;31;34059;-74
2023/12/24 06:40:19;;;;;;;1.17;1.00;;;;;;;4.18;100.00;99604.75;5609257;31;34228;-76
2023/12/24 06:43:22;;;;;;;1.23;0.93;;;;;;;4.38;100.00;99616.81;5609156;31;34103;-73
2023/12/24 06:46:25;;;;;;;1.27;0.93;;;;;;;4.56;100.00;99611.56;5609050;31;34736;-73
2023/12/24 06:49:28;;;;;;;1.40;1.00;;;;;;;4.76;100.00;99616.56;5609200;31;34060;-73
2023/12/24 06:52:33;;;;;;;1.55;1.05;;;;;;;4.85;100.00;99622.72;5609182;31;33625;-73
2023/12/24 06:55:36;;;;;;;1.42;0.98;;;;;;;4.95;100.00;99628.72;5609015;31;34097;-72
2023/12/24 06:58:39;;;;;;;1.25;0.90;;;;;;;4.92;100.00;99622.94;5608805;31;34342;-73
2023/12/24 07:01:42;;;;;;;5.12;1.10;;;;;;;4.98;100.00;99628.44;5608206;31;34943;-73
2023/12/24 07:04:45;;;;;;;0.95;0.73;;;;;;;5.07;100.00;99629.34;5609090;31;34015;-73
2023/12/24 07:07:48;;;;;;;1.58;0.80;;;;;;;5.11;100.00;99630.69;5609000;31;34147;-71
2023/12/24 07:10:51;;;;;;;1.20;0.82;;;;;;;5.26;100.00;99637.06;5608929;31;34043;-72
2023/12/24 07:13:54;;;;;;;1.40;0.77;;;;;;;5.24;100.00;99642.47;5608854;31;34796;-71
2023/12/24 07:16:57;;;;;;;1.02;0.80;;;;;;;5.32;100.00;99641.72;5608865;31;34236;-73
2023/12/24 07:20:00;;;;;;;2.15;0.80;;;;;;;5.42;100.00;99658.19;5609044;31;34183;-72
2023/12/24 07:23:04;;;;;;;1.52;0.80;;;;;;;5.45;100.00;99652.66;5609002;31;34841;-73
2023/12/24 07:26:07;;;;;;;1.05;0.70;;;;;;;5.50;100.00;99646.94;5608929;31;34069;-72
2023/12/24 07:29:09;;;;;;;1.00;0.73;;;;;;;5.74;100.00;99657.63;5608958;31;34231;-72
2023/12/24 07:32:12;;;;;;;1.45;0.57;;;;;;;5.75;100.00;99650.56;5608837;31;34038;-72
2023/12/24 07:35:16;;;;;;;0.73;0.52;;;;;;;5.69;100.00;99652.84;5608061;31;35071;-72
2023/12/24 07:38:19;;;;;;;0.70;0.45;;;;;;;6.02;100.00;99663.59;5608034;31;34074;-72
2023/12/24 07:41:26;;;;;;;0.75;0.43;;;;;;;6.00;100.00;99655.84;5608021;31;34295;-73
2023/12/24 07:44:29;;;;;;;1.25;0.70;;;;;;;6.20;100.00;99647.72;5608677;31;34679;-72
2023/12/24 07:47:32;;;;;;;1.40;0.60;;;;;;;6.29;100.00;99654.69;5608352;31;35057;-72
2023/12/24 07:50:35;;;;;;;1.23;0.60;;;;;;;6.33;100.00;99669.19;5608416;31;33990;-72
2023/12/24 07:53:39;;;;;;;1.25;0.60;;;;;;;6.40;100.00;99660.47;5608672;31;34269;-72
2023/12/24 07:56:42;;;;;;;1.12;0.50;;;;;;;6.51;100.00;99670.75;5608710;31;34114;-73
2023/12/24 07:59:45;;;;;;;1.62;0.40;;;;;;;6.54;100.00;99664.31;5608657;31;34745;-73
2023/12/24 08:02:48;;;;;;;0.95;0.60;;;;;;;6.70;100.00;99679.38;5608947;31;34784;-74
2023/12/24 08:05:52;;;;;;;1.20;0.70;;;;;;;6.50;100.00;99684.91;5608735;31;34156;-73
2023/12/24 08:08:56;;;;;;;1.23;0.50;;;;;;;6.44;100.00;99684.69;5608532;31;34256;-73
2023/12/24 08:11:59;;;;;;;0.60;0.50;;;;;;;6.59;100.00;99706.00;5608903;31;34110;-75
2023/12/24 08:15:02;;;;;;;1.37;0.60;;;;;;;6.51;100.00;99696.25;5608463;31;34589;-74
2023/12/24 08:18:05;;;;;;;0.85;0.57;;;;;;;6.54;100.00;99701.22;5608592;31;34250;-76
2023/12/24 08:21:10;;;;;;;1.67;0.70;;;;;;;6.50;100.00;99700.72;5608308;31;34110;-75
2023/12/24 08:24:15;;;;;;;0.93;0.60;;;;;;;6.44;100.00;99706.59;5608397;31;34289;-74
2023/12/24 08:27:18;;;;;;;1.50;0.82;;;;;;;6.41;100.00;99711.37;5607795;31;34410;-76
2023/12/24 08:30:21;;;;;;;1.08;0.70;;;;;;;6.29;100.00;99707.38;5608792;31;34708;-77
2023/12/24 08:33:24;;;;;;;1.10;0.62;;;;;;;6.36;100.00;99716.28;5608709;31;34038;-76
2023/12/24 08:36:28;;;;;;;0.80;0.60;;;;;;;6.29;100.00;99715.28;5608080;31;34082;-75
2023/12/24 08:39:30;;;;;;;1.17;0.70;;;;;;;6.34;100.00;99719.06;5608218;31;35076;-77
2023/12/24 08:42:33;;;;;;;1.60;0.90;;;;;;;6.32;100.00;99721.03;5608206;31;34766;-75
2023/12/24 08:45:36;;;;;;;2.55;0.70;;;;;;;6.48;100.00;99736.94;5607580;31;33951;-76
2023/12/24 08:48:39;;;;;;;1.10;0.75;;;;;;;6.37;100.00;99746.91;5607157;31;34353;-75
2023/12/24 08:51:43;;;;;;;2.28;0.65;;;;;;;6.42;100.00;99745.47;5607987;31;34788;-75
2023/12/24 08:54:46;;;;;;;1.55;0.90;;;;;;;6.42;100.00;99758.63;5607863;31;35109;-74
2023/12/24 08:57:48;;;;;;;1.30;0.73;;;;;;;6.36;100.00;99763.69;5607730;31;35117;-75
2023/12/24 09:00:51;;;;;;;4.45;1.02;;;;;;;6.33;100.00;99764.84;5607646;31;34255;-75
2023/12/24 09:03:54;;;;;;;2.72;1.17;;;;;;;6.31;100.00;99771.25;5607788;31;34035;-75
2023/12/24 09:06:57;;;;;;;1.70;1.05;;;;;;;6.37;100.00;99762.72;5607782;31;34073;-77
2023/12/24 09:10:01;;;;;;;1.92;1.08;;;;;;;6.48;100.00;99765.94;5607826;31;33978;-75
2023/12/24 09:13:04;;;;;;;2.70;1.10;;;;;;;6.44;100.00;99756.66;5607309;31;34129;-75
2023/12/24 09:16:07;;;;;;;2.45;1.10;;;;;;;6.44;100.00;99759.28;5607497;31;34911;-76
2023/12/24 09:19:11;;;;;;;1.77;1.02;;;;;;;6.53;100.00;99752.28;5607624;31;34293;-76
2023/12/24 09:22:14;;;;;;;1.70;1.10;;;;;;;6.55;100.00;99759.03;5607190;31;34034;-75
2023/12/24 09:25:17;;;;;;;2.20;1.00;;;;;;;6.59;100.00;99756.06;5607138;31;34370;-75
2023/12/24 09:28:21;;;;;;;1.12;0.73;;;;;;;6.55;100.00;99748.50;5607339;31;34624;-76
2023/12/24 09:31:23;;;;;;;2.35;1.23;;;;;;;6.64;100.00;99749.34;5607337;31;34157;-75
2023/12/24 09:34:26;;;;;;;1.65;1.08;;;;;;;6.62;100.00;99748.69;5606449;31;35036;-75
2023/12/24 09:37:31;;;;;;;2.12;1.10;;;;;;;6.62;100.00;99763.69;5607280;31;34197;-75
2023/12/24 09:40:33;;;;;;;1.40;1.05;;;;;;;6.63;100.00;99766.16;5607569;31;34041;-75
2023/12/24 09:43:39;;;;;;;2.08;1.40;;;;;;;6.83;100.00;99778.09;5606986;31;34155;-74
2023/12/24 09:46:42;;;;;;;2.45;1.12;;;;;;;6.83;100.00;99772.00;5606385;31;34820;-75
2023/12/24 09:49:45;;;;;;;2.10;1.20;;;;;;;6.78;100.00;99769.84;5607369;31;34252;-76
2023/12/24 09:52:48;;;;;;;1.80;1.10;;;;;;;6.85;100.00;99770.88;5606903;31;34006;-76
2023/12/24 09:55:51;;;;;;;2.37;1.30;;;;;;;6.87;100.00;99771.53;5606501;31;34669;-76
2023/12/24 09:58:54;;;;;;;2.40;1.40;;;;;;;6.90;100.00;99770.41;5608463;31;34045;-75
2023/12/24 10:01:59;;;;;;;2.70;1.10;;;;;;;6.91;100.00;99756.22;5609674;31;34730;-76
2023/12/24 10:05:03;;;;;;;5.00;1.15;;;;;;;6.86;100.00;99761.16;5609535;31;34264;-76
2023/12/24 10:08:16;;;;;;;3.00;1.55;;;;;;;6.88;100.00;99767.06;5609818;31;34011;-76
2023/12/24 10:11:28;;;;;;;2.33;1.10;;;;;;;6.92;100.00;99765.78;5609534;31;34115;-75
2023/12/24 10:14:31;;;;;;;1.55;0.93;;;;;;;7.03;100.00;99759.38;5609421;31;34806;-73
2023/12/24 10:17:35;;;;;;;2.87;1.10;;;;;;;7.16;100.00;99749.22;5609661;31;33978;-75
2023/12/24 10:20:38;;;;;;;1.58;0.90;;;;;;;7.26;100.00;99753.34;5609228;31;34327;-72
2023/12/24 10:23:42;;;;;;;1.60;0.80;;;;;;;7.47;100.00;99746.78;5609306;31;34172;-72
2023/12/24 10:26:45;;;;;;;1.20;0.70;;;;;;;7.65;100.00;99758.03;5608522;31;34068;-73
2023/12/24 10:29:49;;;;;;;1.85;0.88;;;;;;;7.83;100.00;99761.34;5608937;31;34828;-73
2023/12/24 10:33:08;;;;;;;2.00;0.70;;;;;;;8.03;100.00;99753.91;5609089;31;34240;-73
2023/12/24 10:36:12;;;;;;;1.77;0.70;;;;;;;8.20;100.00;99743.13;5609584;31;33949;-73
2023/12/24 10:39:24;;;;;;;0.70;0.55;;;;;;;8.31;100.00;99744.66;5609212;31;35065;-73
2023/12/24 10:42:29;;;;;;;1.35;0.70;;;;;;;8.39;100.00;99736.69;5609073;31;34032;-73
2023/12/24 10:45:32;;;;;;;3.03;0.60;;;;;;;8.49;100.00;99747.06;5609149;31;34102;-73
2023/12/24 10:48:35;;;;;;;1.30;0.80;;;;;;;8.42;100.00;99741.66;5609312;31;34357;-73
2023/12/24 10:51:39;;;;;;;1.90;0.60;;;;;;;8.57;100.00;99745.22;5609173;31;34386;-73
2023/12/24 10:54:44;;;;;;;1.73;0.70;;;;;;;8.55;100.00;99749.87;5609138;31;34996;-73
2023/12/24 10:58:01;;;;;;;1.98;0.60;;;;;;;8.64;100.00;99745.38;5609077;31;34075;-74
2023/12/24 11:01:10;;;;;;;0.85;0.50;;;;;;;8.70;100.00;99752.62;5608996;31;34754;-72
2023/12/24 11:04:44;;;;;;;0.57;0.40;;;;;;;8.63;100.00;99738.44;5608992;31;34208;-72
2023/12/24 11:07:49;;;;;;;1.27;0.70;;;;;;;8.59;100.00;99718.63;5608613;31;34017;-74
2023/12/24 11:10:56;;;;;;;2.17;0.70;;;;;;;8.56;100.00;99718.97;5608155;31;34131;-72
2023/12/24 11:13:59;;;;;;;1.90;0.80;;;;;;;8.53;100.00;99696.31;5608767;31;34184;-75
2023/12/24 11:17:02;;;;;;;1.42;0.60;;;;;;;8.53;100.00;99708.72;5608909;31;32359;-73
2023/12/24 11:20:20;;;;;;;1.10;0.50;;;;;;;8.53;100.00;99692.84;5608374;31;34005;-73
2023/12/24 11:23:23;;;;;;;1.12;0.37;;;;;;;8.45;100.00;99683.16;5608942;31;34301;-72
2023/12/24 11:26:32;;;;;;;1.02;0.50;;;;;;;8.47;100.00;99689.06;5609077;31;34005;-75
2023/12/24 11:29:50;;;;;;;3.67;0.60;;;;;;;8.54;100.00;99676.00;5609016;31;34467;-72
2023/12/24 11:32:53;;;;;;;2.05;0.60;;;;;;;8.64;100.00;99669.50;5608962;31;34728;-73
2023/12/24 11:36:01;;;;;;;0.95;0.57;;;;;;;8.82;100.00;99681.66;5608705;31;34255;-73
2023/12/24 11:39:07;;;;;;;0.60;0.45;;;;;;;8.89;100.00;99674.69;5595695;31;33976;-72
2023/12/24 11:42:10;;;;;;;1.48;0.70;;;;;;;8.96;100.00;99675.63;5609312;31;34200;-71
2023/12/24 11:45:29;;;;;;;1.60;0.70;;;;;;;9.04;100.00;99668.47;5608957;31;33996;-73
2023/12/24 11:48:34;;;;;;;0.75;0.68;;;;;;;9.16;100.00;99656.47;5608972;31;34085;-71
2023/12/24 11:51:37;;;;;;;1.40;0.60;;;;;;;9.31;100.00;99663.66;5608792;31;34070;-71
2023/12/24 11:54:40;;;;;;;1.70;0.75;;;;;;;9.35;100.00;99651.69;5608844;31;35309;-72
2023/12/24 11:57:45;;;;;;;1.42;0.60;;;;;;;9.28;100.00;99658.72;5608879;31;31981;-73
2023/12/24 12:00:47;;;;;;;2.58;0.60;;;;;;;9.22;100.00;99656.78;5608705;31;34163;-72
2023/12/24 12:03:56;;;;;;;1.95;0.65;;;;;;;9.25;100.00;99649.28;5608731;31;34707;-72
2023/12/24 12:06:59;;;;;;;1.02;0.60;;;;;;;9.37;100.00;99647.06;5608708;31;34156;-71
2023/12/24 12:10:03;;;;;;;1.00;0.52;;;;;;;9.32;100.00;99642.31;5608709;31;34995;-72
2023/12/24 12:13:06;;;;;;;1.30;0.60;;;;;;;9.34;100.00;99645.59;5607774;31;34699;-72
2023/12/24 12:16:09;;;;;;;0.85;0.55;;;;;;;9.32;100.00;99647.59;5608610;31;34789;-72
2023/12/24 12:19:14;;;;;;;1.62;0.70;;;;;;;9.42;100.00;99650.81;5608855;31;34967;-72
2023/12/24 12:22:17;;;;;;;1.48;0.60;;;;;;;9.48;100.00;99651.94;5607617;31;34216;-72
2023/12/24 12:25:20;;;;;;;1.00;0.60;;;;;;;9.54;100.00;99640.63;5608462;31;34359;-71
2023/12/24 12:28:24;;;;;;;0.90;0.60;;;;;;;9.62;100.00;99643.22;5608393;31;33931;-72
2023/12/24 12:31:27;;;;;;;2.22;0.90;;;;;;;9.70;100.00;99642.31;5608482;31;34104;-72
2023/12/24 12:34:30;;;;;;;0.90;0.60;;;;;;;9.80;100.00;99651.63;5608644;31;35021;-72
2023/12/24 12:37:33;;;;;;;1.20;0.60;;;;;;;9.72;100.00;99648.25;5608728;31;35427;-72
2023/12/24 12:40:37;;;;;;;1.80;1.08;;;;;;;9.54;100.00;99643.25;5608611;31;34018;-71
2023/12/24 12:43:50;;;;;;;1.75;1.00;;;;;;;9.52;100.00;99645.28;5608182;31;34122;-71
2023/12/24 12:46:53;;;;;;;2.08;1.10;;;;;;;9.34;100.00;99648.25;5607375;31;34103;-71
2023/12/24 12:49:56;;;;;;;2.33;1.00;;;;;;;9.42;100.00;99650.81;5607396;31;34085;-72
2023/12/24 12:52:59;;;;;;;0.93;0.73;;;;;;;9.42;100.00;99652.66;5608034;31;35040;-71
2023/12/24 12:56:07;;;;;;;1.98;1.08;;;;;;;9.29;100.00;99665.66;5607039;31;34261;-72
2023/12/24 12:59:21;;;;;;;2.62;1.27;;;;;;;9.40;100.00;99667.88;5607786;31;34254;-71
2023/12/24 13:02:27;;;;;;;2.30;1.10;;;;;;;9.41;100.00;99661.59;5608371;31;34039;-72
2023/12/24 13:05:32;;;;;;;2.22;1.17;;;;;;;9.39;100.00;99664.41;5607823;31;34106;-71
2023/12/24 13:08:35;;;;;;;2.12;1.33;;;;;;;9.47;100.00;99660.88;5607783;31;34797;-72
2023/12/24 13:11:39;;;;;;;1.58;1.20;;;;;;;9.50;100.00;99666.63;5608220;31;33998;-74
2023/12/24 13:14:56;;;;;;;2.30;1.30;;;;;;;9.42;100.00;99672.00;5607903;31;32284;-72
2023/12/24 13:18:14;;;;;;;3.00;1.60;;;;;;;9.29;100.00;99668.31;5607672;31;34692;-72
2023/12/24 13:21:19;;;;;;;2.75;1.33;;;;;;;9.27;100.00;99665.00;5607379;31;34759;-72
2023/12/24 13:24:22;;;;;;;1.73;1.25;;;;;;;9.30;100.00;99670.75;5606728;31;35460;-72
2023/12/24 13:27:25;;;;;;;1.42;0.90;;;;;;;9.39;100.00;99675.00;5607742;31;34227;-72
2023/12/24 13:30:28;;;;;;;1.95;0.90;;;;;;;9.51;100.00;99663.00;5607195;31;34744;-72
2023/12/24 13:33:31;;;;;;;1.55;0.80;;;;;;;9.64;100.00;99664.19;5608232;31;34112;-71
2023/12/24 13:36:34;;;;;;;0.93;0.60;;;;;;;9.72;100.00;99645.59;5609902;31;35150;-72
2023/12/24 13:39:40;;;;;;;1.12;0.70;;;;;;;9.84;100.00;99654.75;5610170;31;34725;-71
2023/12/24 13:42:43;;;;;;;3.90;1.00;;;;;;;10.09;100.00;99666.75;5609679;31;34024;-72
2023/12/24 13:45:47;;;;;;;1.02;0.60;;;;;;;10.11;100.00;99667.41;5609112;31;34050;-72
2023/12/24 13:48:53;;;;;;;1.48;0.80;;;;;;;10.15;100.00;99671.31;5609936;31;34091;-73
2023/12/24 13:51:58;;;;;;;1.37;0.70;;;;;;;10.16;100.00;99666.88;5610165;31;32953;-71
2023/12/24 13:55:01;;;;;;;0.60;0.60;;;;;;;10.07;100.00;99673.25;5610004;31;34148;-72
2023/12/24 13:58:04;;;;;;;1.60;1.12;;;;;;;10.12;100.00;99676.19;5609727;31;35426;-73
2023/12/24 14:01:07;;;;;;;2.85;0.93;;;;;;;9.71;100.00;99662.50;5610032;31;34096;-73
2023/12/24 14:04:11;;;;;;;0.80;0.65;;;;;;;9.92;100.00;99674.03;5609825;31;34154;-72
2023/12/24 14:07:14;;;;;;;1.30;0.70;;;;;;;10.03;100.00;99667.47;5609835;31;35066;-71
2023/12/24 14:10:31;;;;;;;1.17;0.80;;;;;;;10.01;100.00;99675.63;5609747;31;34260;-72
2023/12/24 14:13:33;;;;;;;2.75;1.20;;;;;;;10.08;100.00;99685.47;5609586;31;34149;-72
2023/12/24 14:16:38;;;;;;;1.67;1.20;;;;;;;9.90;100.00;99684.00;5608942;31;34269;-71
2023/12/24 14:19:41;;;;;;;2.83;1.50;;;;;;;9.60;100.00;99688.41;5608838;31;34016;-73
2023/12/24 14:22:45;;;;;;;2.62;1.35;;;;;;;9.30;100.00;99686.63;5609811;31;34781;-72
2023/12/24 14:25:48;;;;;;;2.65;1.50;;;;;;;9.28;100.00;99680.72;5608579;31;34035;-73